Time;durP1;ratioP1;P1;durP2;ratioP2;P2;SDS_P1;SDS_P2;PMS_P1;PMS_P2;Temp;Humidity;BMP_temperature;BMP_pressure;BME280_temperature;BME280_humidity;BME280_pressure;Samples;Min_cycle;Max_cycle;Signal;HPM_P1;HPM_P2
2022/01/05 00:04:19;;;;;;;3.67;2.70;;;;;;;4.74;100.00;96463.34;10490991;28;20072;-62
2022/01/05 00:09:22;;;;;;;3.92;2.30;;;;;;;4.74;100.00;96463.34;10489589;28;20531;-54
2022/01/05 00:14:27;;;;;;;3.05;2.70;;;;;;;4.76;100.00;96458.66;10489883;28;20536;-56
2022/01/05 00:19:32;;;;;;;4.45;3.00;;;;;;;4.72;100.00;96436.00;10489252;28;20136;-62
2022/01/05 00:24:36;;;;;;;5.25;3.00;;;;;;;4.68;100.00;96427.53;10489815;28;20500;-54
2022/01/05 00:29:40;;;;;;;5.28;3.40;;;;;;;4.67;100.00;96431.19;10489742;28;20044;-54
2022/01/05 00:34:44;;;;;;;5.15;3.72;;;;;;;4.63;100.00;96430.72;10488777;28;20045;-62
2022/01/05 00:39:47;;;;;;;5.30;4.35;;;;;;;4.65;100.00;96432.34;10489392;28;20491;-54
2022/01/05 00:44:52;;;;;;;5.78;4.05;;;;;;;4.61;100.00;96448.72;10488978;28;20120;-54
2022/01/05 00:49:55;;;;;;;5.15;4.10;;;;;;;4.61;100.00;96448.72;10489529;28;20044;-57
2022/01/05 00:54:58;;;;;;;4.95;3.28;;;;;;;4.60;100.00;96439.03;10486180;28;20135;-57
2022/01/05 01:00:03;;;;;;;4.97;3.10;;;;;;;4.60;100.00;96425.72;10475628;28;20040;-54
2022/01/05 01:05:07;;;;;;;4.68;2.88;;;;;;;4.56;100.00;96432.38;10488385;28;20144;-53
2022/01/05 01:10:10;;;;;;;3.13;2.75;;;;;;;4.55;100.00;96427.25;10485239;28;20516;-62
2022/01/05 01:15:15;;;;;;;3.65;2.67;;;;;;;4.53;100.00;96440.72;10484114;28;20483;-55
2022/01/05 01:20:18;;;;;;;2.70;2.50;;;;;;;4.53;100.00;96438.06;10489042;28;20051;-54
2022/01/05 01:25:21;;;;;;;4.32;2.20;;;;;;;4.50;100.00;96427.75;10485501;28;20044;-56
2022/01/05 01:30:26;;;;;;;2.80;2.10;;;;;;;4.48;100.00;96419.91;10488022;28;20055;-54
2022/01/05 01:35:29;;;;;;;2.60;1.90;;;;;;;4.47;100.00;96420.91;10503425;28;20060;-56
2022/01/05 01:40:32;;;;;;;1.08;1.00;;;;;;;4.46;100.00;96413.94;10501381;28;20036;-54
2022/01/05 01:45:36;;;;;;;1.80;1.20;;;;;;;4.50;100.00;96408.25;10506994;28;20041;-55
2022/01/05 01:50:39;;;;;;;2.78;1.20;;;;;;;4.49;100.00;96412.75;10504351;28;20056;-58
2022/01/05 01:55:43;;;;;;;1.10;1.00;;;;;;;4.46;100.00;96418.44;10504867;28;20028;-53
2022/01/05 02:00:48;;;;;;;0.90;0.90;;;;;;;4.52;100.00;96422.25;10503574;28;20052;-63
2022/01/05 02:05:51;;;;;;;0.50;0.50;;;;;;;4.51;100.00;96415.25;10503187;28;20499;-54
2022/01/05 02:10:54;;;;;;;0.70;0.70;;;;;;;4.52;100.00;96411.56;10484787;28;20306;-57
2022/01/05 02:15:59;;;;;;;1.27;0.77;;;;;;;4.53;100.00;96373.25;10508141;28;20574;-54
2022/01/05 02:21:06;;;;;;;0.98;0.70;;;;;;;4.49;100.00;96372.75;10494624;28;20055;-54
2022/01/05 02:26:11;;;;;;;0.88;0.70;;;;;;;4.46;100.00;96365.09;10517436;28;20040;-53
2022/01/05 02:31:14;;;;;;;0.70;0.60;;;;;;;4.43;100.00;96355.63;10491527;28;20049;-54
2022/01/05 02:36:20;;;;;;;0.85;0.50;;;;;;;4.40;100.00;96363.97;10475988;28;20051;-64
2022/01/05 02:41:24;;;;;;;0.60;0.60;;;;;;;4.41;100.00;96370.16;10463750;28;20074;-56
2022/01/05 02:46:27;;;;;;;2.28;0.60;;;;;;;4.38;100.00;96371.31;10455406;28;20128;-53
2022/01/05 02:51:31;;;;;;;1.77;0.68;;;;;;;4.35;100.00;96384.16;10472135;28;20080;-59
2022/01/05 02:56:34;;;;;;;2.05;0.60;;;;;;;4.35;100.00;96405.47;10451255;28;20119;-53
2022/01/05 03:01:38;;;;;;;0.80;0.50;;;;;;;4.30;100.00;96401.47;10456080;28;20493;-53
2022/01/05 03:06:43;;;;;;;0.70;0.50;;;;;;;4.28;100.00;96403.50;10456733;28;20036;-53
2022/01/05 03:11:46;;;;;;;0.95;0.50;;;;;;;4.23;100.00;96402.38;10460900;28;20508;-54
2022/01/05 03:16:49;;;;;;;0.55;0.40;;;;;;;4.24;100.00;96415.50;10455728;28;20080;-58
2022/01/05 03:21:54;;;;;;;0.40;0.40;;;;;;;4.28;100.00;96403.50;10462062;28;20123;-53
2022/01/05 03:26:57;;;;;;;0.57;0.50;;;;;;;4.36;100.00;96409.81;10461650;28;20520;-58
2022/01/05 03:32:00;;;;;;;0.40;0.40;;;;;;;4.44;100.00;96407.09;10461397;28;20114;-57
2022/01/05 03:37:05;;;;;;;2.20;0.52;;;;;;;4.48;100.00;96400.44;10467973;28;20053;-57
2022/01/05 03:42:09;;;;;;;0.60;0.60;;;;;;;4.49;100.00;96420.75;10476217;28;20052;-56
2022/01/05 03:47:12;;;;;;;1.77;0.80;;;;;;;4.41;100.00;96436.78;10464221;28;20033;-54
2022/01/05 03:52:17;;;;;;;1.20;1.10;;;;;;;4.32;100.00;96434.13;10466105;28;20055;-60
2022/01/05 03:57:20;;;;;;;1.50;1.40;;;;;;;4.27;100.00;96446.31;10476832;28;20512;-62
2022/01/05 04:02:23;;;;;;;1.70;1.60;;;;;;;4.22;100.00;96424.69;10463279;28;20123;-60
2022/01/05 04:07:28;;;;;;;3.25;2.63;;;;;;;4.19;100.00;96441.00;10448861;28;20064;-57
2022/01/05 04:12:31;;;;;;;0.95;0.70;;;;;;;3.99;100.00;96457.38;10466284;28;20073;-62
2022/01/05 04:17:34;;;;;;;0.30;0.30;;;;;;;3.75;100.00;96471.50;10466615;28;20120;-57
2022/01/05 04:22:39;;;;;;;0.30;0.20;;;;;;;3.54;100.00;96475.50;10482556;28;20378;-58
2022/01/05 04:27:42;;;;;;;1.20;0.98;;;;;;;3.45;100.00;96487.16;10477991;28;20068;-58
2022/01/05 04:32:45;;;;;;;1.42;1.30;;;;;;;3.06;100.00;96505.34;10479207;28;20053;-61
2022/01/05 04:38:10;;;;;;;3.63;1.60;;;;;;;2.37;100.00;96508.03;10511472;28;20354;-61
2022/01/05 04:43:14;;;;;;;3.25;1.60;;;;;;;1.81;100.00;96526.91;10504095;28;20040;-59
2022/01/05 04:48:17;;;;;;;2.13;1.77;;;;;;;1.50;100.00;96545.84;10504877;28;20060;-61
2022/01/05 04:53:22;;;;;;;2.63;2.30;;;;;;;1.37;100.00;96548.03;10489373;28;20056;-63
2022/01/05 04:58:25;;;;;;;4.90;2.40;;;;;;;1.27;100.00;96560.53;10506395;28;20036;-60
2022/01/05 05:03:28;;;;;;;2.22;1.90;;;;;;;1.18;100.00;96579.00;10507364;28;20047;-60
2022/01/05 05:08:32;;;;;;;2.08;1.88;;;;;;;1.04;100.00;96585.63;10505351;28;20393;-62
2022/01/05 05:13:36;;;;;;;1.67;1.25;;;;;;;0.86;100.00;96588.22;10507774;28;20514;-60
2022/01/05 05:18:39;;;;;;;3.95;0.90;;;;;;;0.77;100.00;96599.69;10507735;28;20044;-60
2022/01/05 05:23:44;;;;;;;1.42;0.65;;;;;;;0.66;100.00;96602.50;10508201;28;20047;-63
2022/01/05 05:28:47;;;;;;;3.95;0.70;;;;;;;0.57;100.00;96626.25;10494044;28;20124;-63
2022/01/05 05:33:50;;;;;;;2.97;1.02;;;;;;;0.48;100.00;96627.09;10507518;28;20542;-62
2022/01/05 05:38:54;;;;;;;3.60;1.30;;;;;;;0.43;100.00;96645.22;10503449;28;20041;-62
2022/01/05 05:43:57;;;;;;;10.75;1.80;;;;;;;0.37;100.00;96656.41;10499080;28;20536;-60
2022/01/05 05:49:00;;;;;;;5.18;1.75;;;;;;;0.32;100.00;96674.53;10504023;28;20655;-60
2022/01/05 05:54:05;;;;;;;6.07;1.75;;;;;;;0.24;100.00;96673.41;10478072;28;20143;-67
2022/01/05 05:59:08;;;;;;;9.77;2.28;;;;;;;0.21;100.00;96660.44;10487593;28;20389;-64
2022/01/05 06:04:11;;;;;;;7.78;2.15;;;;;;;0.20;100.00;96668.53;10510695;28;20075;-62
2022/01/05 06:09:15;;;;;;;8.15;1.40;;;;;;;0.21;100.00;96684.28;10500980;28;20044;-66
2022/01/05 06:14:18;;;;;;;5.32;1.30;;;;;;;0.23;100.00;96703.53;10500718;28;20056;-65
2022/01/05 06:19:22;;;;;;;2.13;1.10;;;;;;;0.20;100.00;96719.69;10503737;28;20036;-63
2022/01/05 06:24:27;;;;;;;4.10;1.50;;;;;;;0.13;100.00;96737.09;10506628;28;20059;-63
2022/01/05 06:29:30;;;;;;;3.22;1.55;;;;;;;0.08;100.00;96729.56;10477807;28;20048;-63
2022/01/05 06:34:33;;;;;;;3.67;1.30;;;;;;;0.12;100.00;96724.84;10487903;28;20416;-61
2022/01/05 06:39:38;;;;;;;3.75;2.08;;;;;;;0.11;100.00;96736.41;10485119;28;20075;-64
2022/01/05 06:44:42;;;;;;;2.20;1.60;;;;;;;0.13;100.00;96732.63;10485138;28;20396;-59
2022/01/05 06:49:46;;;;;;;5.78;1.70;;;;;;;0.18;100.00;96737.50;10481192;28;20041;-61
2022/01/05 06:54:51;;;;;;;5.85;2.92;;;;;;;0.50;100.00;96746.19;10483925;28;20441;-63
2022/01/05 06:59:54;;;;;;;4.88;1.40;;;;;;;0.79;100.00;96748.00;10475996;28;20082;-62
2022/01/05 07:04:57;;;;;;;8.82;1.50;;;;;;;1.08;100.00;96745.28;10483869;28;20047;-64
2022/01/05 07:10:06;;;;;;;10.52;2.30;;;;;;;0.86;100.00;96742.00;10484459;28;20040;-57
2022/01/05 07:15:10;;;;;;;7.32;1.83;;;;;;;1.22;100.00;96757.25;10482131;28;20422;-67
2022/01/05 07:20:16;;;;;;;7.18;1.38;;;;;;;0.97;100.00;96764.00;10482575;28;20072;-66
2022/01/05 07:25:21;;;;;;;7.75;1.27;;;;;;;0.75;100.00;96761.53;10474582;28;20055;-65
2022/01/05 07:30:24;;;;;;;8.10;1.70;;;;;;;0.72;100.00;96776.88;10489066;28;20543;-61
2022/01/05 07:35:28;;;;;;;13.43;1.80;;;;;;;0.71;100.00;96791.09;10513379;28;20045;-64
2022/01/05 07:40:33;;;;;;;10.45;1.83;;;;;;;0.78;100.00;96789.53;10518544;28;20097;-61
2022/01/05 07:45:36;;;;;;;14.77;2.10;;;;;;;0.80;100.00;96781.47;10513927;28;20044;-60
2022/01/05 07:50:39;;;;;;;13.88;1.85;;;;;;;0.77;100.00;96791.38;10510816;28;20133;-60
2022/01/05 07:55:44;;;;;;;11.55;1.90;;;;;;;0.75;100.00;96819.00;10485395;28;20044;-59
2022/01/05 08:00:47;;;;;;;12.00;1.77;;;;;;;0.77;100.00;96822.34;10508912;28;20054;-66
2022/01/05 08:05:51;;;;;;;14.88;2.05;;;;;;;0.78;100.00;96853.16;10485884;28;20090;-63
2022/01/05 08:10:56;;;;;;;15.48;2.28;;;;;;;0.80;100.00;96827.38;10503352;28;20523;-64
2022/01/05 08:15:59;;;;;;;9.65;1.88;;;;;;;0.81;100.00;96854.72;10473859;28;20124;-60
2022/01/05 08:21:03;;;;;;;12.60;1.92;;;;;;;0.83;100.00;96864.19;10480139;28;20044;-59
2022/01/05 08:26:08;;;;;;;18.63;2.20;;;;;;;0.88;100.00;96877.88;10516000;28;20049;-59
2022/01/05 08:31:12;;;;;;;14.18;2.10;;;;;;;0.95;100.00;96870.19;10498475;28;20090;-60
2022/01/05 08:36:15;;;;;;;12.02;1.70;;;;;;;0.95;100.00;96856.94;10497940;28;20045;-61
2022/01/05 08:41:20;;;;;;;10.55;1.60;;;;;;;0.94;100.00;96875.66;10512142;28;20935;-65
2022/01/05 08:46:23;;;;;;;9.63;1.77;;;;;;;0.94;100.00;96873.00;10514560;28;20076;-60
2022/01/05 08:51:26;;;;;;;14.05;1.92;;;;;;;0.85;100.00;96880.81;10493317;28;20064;-59
2022/01/05 08:56:31;;;;;;;6.88;1.70;;;;;;;0.80;100.00;96883.03;10492069;28;20044;-62
2022/01/05 09:01:34;;;;;;;14.00;2.60;;;;;;;0.75;100.00;96890.56;10514865;28;20040;-59
2022/01/05 09:06:37;;;;;;;11.23;2.20;;;;;;;0.71;100.00;96881.22;10517983;28;20044;-58
2022/01/05 09:11:42;;;;;;;10.48;2.00;;;;;;;0.73;100.00;96905.78;10514446;28;20048;-63
2022/01/05 09:16:45;;;;;;;10.60;2.20;;;;;;;0.70;100.00;96925.44;10520232;28;20492;-58
2022/01/05 09:21:49;;;;;;;11.18;2.05;;;;;;;0.75;100.00;96919.72;10486327;28;20531;-58
2022/01/05 09:27:13;;;;;;;8.77;2.22;;;;;;;0.79;100.00;96929.06;10517720;28;20526;-56
2022/01/05 09:32:17;;;;;;;6.38;2.35;;;;;;;0.94;100.00;96923.38;10505625;28;20097;-62
2022/01/05 09:37:25;;;;;;;8.85;2.70;;;;;;;1.05;100.00;96925.91;10512781;28;20044;-62
2022/01/05 09:42:31;;;;;;;10.43;2.25;;;;;;;1.16;100.00;96935.56;10506900;28;20500;-63
2022/01/05 09:48:16;;;;;;;6.78;2.28;;;;;;;1.25;100.00;96933.84;10520949;28;20037;-61
2022/01/05 09:53:21;;;;;;;5.57;1.90;;;;;;;1.34;100.00;96941.00;10462005;28;20109;-62
2022/01/05 09:58:25;;;;;;;9.68;2.05;;;;;;;1.36;100.00;96939.88;10516570;28;20043;-61
2022/01/05 10:03:29;;;;;;;10.07;1.90;;;;;;;1.38;100.00;96922.00;10519586;28;20477;-61
2022/01/05 10:08:32;;;;;;;7.13;1.80;;;;;;;1.40;100.00;96943.06;10511045;28;20484;-62
2022/01/05 10:13:36;;;;;;;7.72;1.90;;;;;;;1.44;100.00;96943.63;10516264;28;20040;-62
2022/01/05 10:18:41;;;;;;;4.43;2.10;;;;;;;1.52;100.00;96939.31;10507708;28;20415;-62
2022/01/05 10:23:46;;;;;;;7.05;1.65;;;;;;;1.67;100.00;96957.47;10519424;28;20389;-60
2022/01/05 10:28:52;;;;;;;10.20;2.30;;;;;;;1.53;100.00;96962.22;10492817;28;20064;-62
2022/01/05 10:33:56;;;;;;;5.43;1.70;;;;;;;1.46;100.00;96953.16;10496483;28;20445;-61
2022/01/05 10:38:59;;;;;;;7.30;1.83;;;;;;;1.45;100.00;96946.16;10480885;28;20044;-60
2022/01/05 10:44:16;;;;;;;6.38;1.90;;;;;;;1.43;100.00;96953.41;10512742;28;20097;-61
2022/01/05 10:49:24;;;;;;;4.90;1.52;;;;;;;1.43;100.00;96949.91;10512883;28;20079;-61
2022/01/05 10:54:29;;;;;;;10.15;1.85;;;;;;;1.43;100.00;96955.22;10510231;28;20041;-61
2022/01/05 10:59:37;;;;;;;6.63;1.50;;;;;;;1.32;100.00;96958.88;10514826;28;20047;-60
2022/01/05 11:04:41;;;;;;;5.68;1.73;;;;;;;1.31;100.00;96943.94;10511688;28;20051;-61
2022/01/05 11:10:01;;;;;;;7.93;1.90;;;;;;;1.34;100.00;96930.38;10510741;28;20070;-61
2022/01/05 11:15:36;;;;;;;11.52;2.08;;;;;;;1.33;100.00;96924.22;10516229;28;20052;-61
2022/01/05 11:20:42;;;;;;;7.38;1.90;;;;;;;1.35;100.00;96916.16;10464525;28;20070;-60
2022/01/05 11:25:46;;;;;;;7.85;1.70;;;;;;;1.38;100.00;96914.03;10510027;28;20050;-61
2022/01/05 11:30:52;;;;;;;6.50;1.70;;;;;;;1.42;100.00;96932.31;10513559;28;20143;-60
2022/01/05 11:35:58;;;;;;;8.07;2.00;;;;;;;1.57;100.00;96912.34;10497563;28;20582;-62
2022/01/05 11:41:01;;;;;;;7.95;1.80;;;;;;;1.68;100.00;96929.94;10509884;28;20036;-60
2022/01/05 11:46:16;;;;;;;6.85;1.50;;;;;;;1.77;100.00;96934.38;10511250;28;20074;-60
2022/01/05 11:51:30;;;;;;;7.55;1.80;;;;;;;1.85;100.00;96907.94;10485229;28;20074;-59
2022/01/05 11:56:41;;;;;;;8.73;1.65;;;;;;;1.92;100.00;96929.44;10526104;28;20759;-63
2022/01/05 12:01:58;;;;;;;4.90;1.67;;;;;;;1.88;100.00;96928.09;10527654;28;20756;-63
2022/01/05 12:07:07;;;;;;;8.60;1.90;;;;;;;1.86;100.00;96935.34;10508885;28;20566;-64
2022/01/05 12:12:30;;;;;;;6.70;1.60;;;;;;;1.92;100.00;96913.53;10518848;28;20450;-64
2022/01/05 12:17:35;;;;;;;8.13;1.50;;;;;;;1.92;100.00;96908.19;10525628;28;20115;-63
2022/01/05 12:22:40;;;;;;;7.00;1.90;;;;;;;1.98;100.00;96909.44;10527657;28;20058;-60
2022/01/05 12:28:03;;;;;;;6.75;1.65;;;;;;;2.11;100.00;96907.31;10526886;28;20452;-61
2022/01/05 12:33:17;;;;;;;12.63;1.90;;;;;;;2.17;100.00;96905.06;10511044;28;20074;-61
2022/01/05 12:38:42;;;;;;;7.80;1.90;;;;;;;2.34;100.00;96896.31;10514317;28;20107;-61
2022/01/05 12:43:45;;;;;;;5.05;1.60;;;;;;;2.39;100.00;96898.50;10518522;28;20115;-62
2022/01/05 12:49:03;;;;;;;9.52;2.00;;;;;;;2.47;100.00;96899.47;10509774;28;20064;-65
2022/01/05 12:54:07;;;;;;;9.50;1.65;;;;;;;2.61;100.00;96894.63;10518483;28;20504;-64
2022/01/05 12:59:15;;;;;;;9.25;1.80;;;;;;;2.68;100.00;96916.97;10515454;28;20047;-65
2022/01/05 13:04:23;;;;;;;6.53;1.63;;;;;;;2.75;100.00;96909.25;10526868;28;20119;-66
2022/01/05 13:09:30;;;;;;;6.93;1.50;;;;;;;2.45;100.00;96920.03;10505920;28;20106;-61
2022/01/05 13:14:37;;;;;;;5.93;1.50;;;;;;;2.38;100.00;96928.72;10520665;28;20074;-65
2022/01/05 13:19:44;;;;;;;5.82;1.50;;;;;;;2.21;100.00;96947.13;10522257;28;20089;-62
2022/01/05 13:24:54;;;;;;;6.22;1.60;;;;;;;2.19;100.00;96937.59;10512800;28;20157;-66
2022/01/05 13:29:59;;;;;;;7.60;1.55;;;;;;;2.10;100.00;96957.94;10518003;28;20048;-59
2022/01/05 13:35:07;;;;;;;6.57;1.58;;;;;;;2.02;100.00;96907.31;10517018;28;20398;-61
2022/01/05 13:40:13;;;;;;;6.88;1.70;;;;;;;1.96;100.00;96911.41;10516493;28;20412;-61
2022/01/05 13:45:22;;;;;;;9.05;1.67;;;;;;;1.84;100.00;96940.78;10501554;28;20051;-61
2022/01/05 13:50:33;;;;;;;7.75;1.90;;;;;;;1.44;100.00;96981.63;10517410;28;20036;-63
2022/01/05 13:55:39;;;;;;;8.77;1.90;;;;;;;1.05;100.00;96982.44;10512281;28;20064;-61
2022/01/05 14:00:44;;;;;;;10.13;2.15;;;;;;;0.83;100.00;96983.50;10510696;28;20127;-64
2022/01/05 14:05:50;;;;;;;12.38;2.50;;;;;;;0.74;100.00;96997.56;10499444;28;20050;-59
2022/01/05 14:11:03;;;;;;;6.43;1.90;;;;;;;0.72;100.00;96999.50;10513001;28;20954;-62
2022/01/05 14:16:07;;;;;;;8.98;2.17;;;;;;;0.78;100.00;96988.34;10488939;28;20057;-63
2022/01/05 14:21:11;;;;;;;12.43;2.40;;;;;;;0.79;100.00;96992.69;10514105;28;20036;-61
2022/01/05 14:26:14;;;;;;;10.57;2.33;;;;;;;0.78;100.00;97014.88;10518861;28;20045;-59
2022/01/05 14:31:18;;;;;;;9.98;2.00;;;;;;;0.78;100.00;97014.88;10515099;28;20036;-61
2022/01/05 14:36:26;;;;;;;5.72;1.60;;;;;;;0.86;100.00;97023.00;10522972;28;20423;-60
2022/01/05 14:41:35;;;;;;;9.18;2.10;;;;;;;0.87;100.00;97023.84;10520957;28;20054;-59
2022/01/05 14:46:40;;;;;;;8.02;2.03;;;;;;;0.90;100.00;97018.25;10523183;28;20591;-65
2022/01/05 14:51:46;;;;;;;7.38;2.10;;;;;;;0.97;100.00;97003.47;10498162;28;20048;-65
2022/01/05 14:56:51;;;;;;;4.95;1.40;;;;;;;1.05;100.00;97016.06;10519079;28;20048;-61
2022/01/05 15:01:54;;;;;;;5.00;1.63;;;;;;;1.16;100.00;97015.94;10502640;28;20091;-58
2022/01/05 15:06:59;;;;;;;3.53;1.58;;;;;;;1.19;100.00;96999.75;10496847;28;20105;-65
2022/01/05 15:12:03;;;;;;;4.80;1.52;;;;;;;1.21;100.00;97019.03;10515275;28;20120;-60
2022/01/05 15:17:07;;;;;;;6.30;2.00;;;;;;;1.29;100.00;97033.44;10522980;28;20036;-61
2022/01/05 15:22:13;;;;;;;3.97;1.90;;;;;;;1.32;100.00;97039.28;10512715;28;20037;-59
2022/01/05 15:27:19;;;;;;;4.50;1.23;;;;;;;1.40;100.00;97051.88;10520095;28;20032;-54
2022/01/05 15:32:22;;;;;;;9.38;2.08;;;;;;;1.44;100.00;97065.69;10509214;28;20052;-61
2022/01/05 15:37:26;;;;;;;5.55;1.60;;;;;;;1.45;100.00;97060.28;10498038;28;20151;-62
2022/01/05 15:42:30;;;;;;;3.80;1.60;;;;;;;1.48;100.00;97075.06;10501108;28;20028;-60
2022/01/05 15:47:33;;;;;;;4.03;1.50;;;;;;;1.50;100.00;97079.25;10506280;28;20048;-61
2022/01/05 15:52:39;;;;;;;4.72;1.40;;;;;;;1.54;100.00;97087.78;10510226;28;20060;-62
2022/01/05 15:57:55;;;;;;;4.38;1.00;;;;;;;1.64;100.00;97101.06;10508231;28;20072;-62
2022/01/05 16:02:58;;;;;;;3.75;1.48;;;;;;;1.65;100.00;97103.59;10514097;28;20075;-64
2022/01/05 16:08:03;;;;;;;2.55;1.13;;;;;;;1.68;100.00;97099.84;10506488;28;20136;-61
2022/01/05 16:13:06;;;;;;;4.95;1.10;;;;;;;1.76;100.00;97099.97;10504526;28;20040;-64
2022/01/05 16:18:11;;;;;;;2.80;0.90;;;;;;;1.92;100.00;97106.56;10512618;28;20051;-60
2022/01/05 16:23:18;;;;;;;1.17;0.80;;;;;;;1.99;100.00;97099.69;10510956;28;20118;-60
2022/01/05 16:28:21;;;;;;;2.40;0.95;;;;;;;2.07;100.00;97110.47;10503174;28;20885;-58
2022/01/05 16:33:25;;;;;;;4.35;1.15;;;;;;;2.06;100.00;97116.75;10490320;28;20048;-62
2022/01/05 16:38:29;;;;;;;2.83;0.80;;;;;;;2.09;100.00;97121.78;10487365;28;20045;-61
2022/01/05 16:43:32;;;;;;;3.35;1.00;;;;;;;2.10;100.00;97117.31;10483566;28;20049;-61
2022/01/05 16:48:37;;;;;;;1.77;0.70;;;;;;;2.20;100.00;97141.22;10499413;28;20079;-63
2022/01/05 16:53:43;;;;;;;2.78;0.90;;;;;;;2.25;100.00;97142.47;10502773;28;20041;-62
2022/01/05 17:04:06;;;;;;;1.90;0.90;;;;;;;2.34;100.00;97163.91;10482315;28;20135;-65
2022/01/05 17:09:11;;;;;;;1.45;0.80;;;;;;;2.36;100.00;97144.16;10521647;28;20395;-64
2022/01/05 17:14:16;;;;;;;2.28;0.98;;;;;;;2.37;100.00;97151.16;10520289;28;20047;-66
2022/01/05 17:19:19;;;;;;;2.63;0.90;;;;;;;2.34;100.00;97154.09;10502284;28;20043;-64
2022/01/05 17:24:23;;;;;;;2.30;0.90;;;;;;;2.27;100.00;97160.97;10502635;28;20143;-63
2022/01/05 17:29:27;;;;;;;1.58;0.90;;;;;;;2.16;100.00;97172.56;10519182;28;20036;-58
2022/01/05 17:34:30;;;;;;;2.10;0.95;;;;;;;2.06;100.00;97191.13;10502444;28;20062;-57
2022/01/05 17:39:35;;;;;;;1.92;1.00;;;;;;;2.07;100.00;97176.88;10510104;28;20032;-54
2022/01/05 17:44:38;;;;;;;3.03;0.95;;;;;;;2.03;100.00;97172.84;10492227;28;20056;-56
2022/01/05 17:49:42;;;;;;;2.35;0.95;;;;;;;2.06;100.00;97191.13;10504903;28;20485;-54
2022/01/05 17:54:47;;;;;;;3.63;1.13;;;;;;;2.14;100.00;97185.97;10506042;28;20536;-63
2022/01/05 17:59:50;;;;;;;2.45;1.00;;;;;;;2.26;100.00;97184.00;10506492;28;20079;-55
2022/01/05 18:04:53;;;;;;;1.58;0.90;;;;;;;2.28;100.00;97205.16;10513062;28;20047;-60
2022/01/05 18:09:57;;;;;;;0.90;0.80;;;;;;;2.27;100.00;97206.13;10510272;28;20040;-60
2022/01/05 18:15:00;;;;;;;2.95;0.80;;;;;;;2.23;100.00;97200.25;10499656;28;20131;-58
2022/01/05 18:20:05;;;;;;;1.52;0.70;;;;;;;2.15;100.00;97194.78;10504335;28;20036;-58
2022/01/05 18:25:10;;;;;;;4.00;1.05;;;;;;;2.07;100.00;97203.44;10509670;28;20045;-63
2022/01/05 18:30:13;;;;;;;1.20;0.80;;;;;;;2.06;100.00;97219.53;10504614;28;20552;-60
2022/01/05 18:35:23;;;;;;;1.65;0.82;;;;;;;2.06;100.00;97185.81;10516829;28;20150;-59
2022/01/05 18:40:27;;;;;;;1.23;0.80;;;;;;;2.06;100.00;97211.56;10510974;28;20044;-63
2022/01/05 18:45:31;;;;;;;2.58;1.02;;;;;;;2.05;100.00;97217.84;10505966;28;20048;-54
2022/01/05 18:50:34;;;;;;;1.20;0.70;;;;;;;2.05;100.00;97216.03;10518954;28;20036;-60
2022/01/05 18:55:38;;;;;;;1.02;0.80;;;;;;;2.14;100.00;97225.84;10502115;28;20097;-58
2022/01/05 19:00:42;;;;;;;3.38;1.00;;;;;;;2.27;100.00;97217.59;10518450;28;20036;-55
2022/01/05 19:05:45;;;;;;;2.90;0.90;;;;;;;2.35;100.00;97251.44;10518039;28;20499;-56
2022/01/05 19:10:49;;;;;;;1.00;0.70;;;;;;;2.46;100.00;97238.03;10512526;28;21100;-57
2022/01/05 19:15:53;;;;;;;1.60;1.00;;;;;;;2.54;100.00;97239.13;10523250;28;20120;-59
2022/01/05 19:20:57;;;;;;;2.10;0.73;;;;;;;2.60;100.00;97273.16;10516621;28;20040;-58
2022/01/05 19:26:01;;;;;;;1.63;0.75;;;;;;;2.66;100.00;97235.34;10515722;28;20044;-59
2022/01/05 19:31:04;;;;;;;1.92;0.70;;;;;;;2.68;100.00;97249.34;10511805;28;20519;-59
2022/01/05 19:36:08;;;;;;;3.00;0.80;;;;;;;2.71;100.00;97233.13;10515994;28;20139;-62
2022/01/05 19:41:13;;;;;;;1.38;0.70;;;;;;;2.73;100.00;97247.13;10520483;28;20156;-57
2022/01/05 19:46:16;;;;;;;1.15;0.80;;;;;;;2.82;100.00;97239.28;10515247;28;20407;-63
2022/01/05 19:51:30;;;;;;;4.35;1.17;;;;;;;2.81;100.00;97250.88;10493579;28;20050;-57
2022/01/05 19:56:50;;;;;;;3.05;1.10;;;;;;;2.82;100.00;97265.88;10501078;28;20039;-63
2022/01/05 20:01:56;;;;;;;2.97;1.27;;;;;;;2.86;100.00;97277.91;10485054;28;20420;-59
2022/01/05 20:07:00;;;;;;;4.93;1.30;;;;;;;2.87;100.00;97298.22;10506362;28;20058;-60
2022/01/05 20:12:05;;;;;;;2.42;1.25;;;;;;;2.83;100.00;97291.50;10489963;28;20408;-65
2022/01/05 20:17:09;;;;;;;3.47;1.60;;;;;;;2.82;100.00;97305.75;10521863;28;20105;-62
2022/01/05 20:22:12;;;;;;;5.70;1.48;;;;;;;2.76;100.00;97300.00;10518031;28;20033;-63
2022/01/05 20:27:16;;;;;;;3.20;1.55;;;;;;;2.77;100.00;97304.34;10502350;28;20411;-58
2022/01/05 20:32:19;;;;;;;3.97;1.33;;;;;;;2.80;100.00;97305.91;10488714;28;20082;-63
2022/01/05 20:37:23;;;;;;;2.72;1.30;;;;;;;2.73;100.00;97305.63;10511834;28;20571;-67
2022/01/05 20:42:27;;;;;;;2.83;1.27;;;;;;;2.76;100.00;97321.28;10523785;28;20040;-56
2022/01/05 20:47:30;;;;;;;3.28;1.20;;;;;;;2.78;100.00;97324.66;10506959;28;20123;-62
2022/01/05 20:52:33;;;;;;;2.03;1.30;;;;;;;2.76;100.00;97323.13;10497727;28;20400;-64
2022/01/05 20:57:40;;;;;;;4.53;1.95;;;;;;;2.79;100.00;97338.81;10517502;28;20133;-61
2022/01/05 21:02:44;;;;;;;3.63;1.40;;;;;;;2.80;100.00;97337.84;10509893;28;20082;-59
2022/01/05 21:07:49;;;;;;;3.92;1.60;;;;;;;2.84;100.00;97346.38;10502378;28;20056;-64
2022/01/05 21:12:58;;;;;;;4.32;1.73;;;;;;;2.84;100.00;97349.84;10513299;28;20058;-64
2022/01/05 21:18:05;;;;;;;4.93;1.40;;;;;;;2.93;100.00;97353.50;10478802;28;20052;-58
2022/01/05 21:23:09;;;;;;;4.03;1.50;;;;;;;2.96;100.00;97366.53;10487527;28;20129;-64
2022/01/05 21:28:13;;;;;;;3.78;1.30;;;;;;;3.00;100.00;97354.63;10512446;28;20119;-65
2022/01/05 21:33:17;;;;;;;3.35;1.20;;;;;;;3.04;100.00;97369.34;10504460;28;20032;-62
2022/01/05 21:38:20;;;;;;;2.60;1.10;;;;;;;3.02;100.00;97368.63;10514345;28;20060;-64
2022/01/05 21:43:24;;;;;;;3.50;1.30;;;;;;;3.03;100.00;97372.97;10487157;28;20048;-63
2022/01/05 21:48:27;;;;;;;2.63;1.27;;;;;;;3.00;100.00;97394.53;10498663;28;20107;-63
2022/01/05 21:53:30;;;;;;;2.75;1.40;;;;;;;3.01;100.00;97376.75;10505041;28;20044;-63
2022/01/05 21:58:35;;;;;;;2.47;1.30;;;;;;;2.99;100.00;97379.56;10506358;28;20040;-59
2022/01/05 22:03:39;;;;;;;4.60;1.83;;;;;;;2.96;100.00;97390.47;10493135;28;20052;-61
2022/01/05 22:08:42;;;;;;;3.38;1.30;;;;;;;3.05;100.00;97394.13;10489270;28;20048;-63
2022/01/05 22:13:47;;;;;;;3.30;1.60;;;;;;;3.07;100.00;97387.69;10478667;28;20360;-66
2022/01/05 22:18:50;;;;;;;3.78;1.63;;;;;;;3.09;100.00;97392.88;10504827;28;20046;-63
2022/01/05 22:23:54;;;;;;;6.18;2.00;;;;;;;3.12;100.00;97410.38;10500026;28;20119;-62
2022/01/05 22:28:58;;;;;;;4.05;1.50;;;;;;;3.13;100.00;97409.38;10497892;28;20042;-62
2022/01/05 22:34:01;;;;;;;5.55;1.70;;;;;;;3.11;100.00;97417.53;10500132;28;20055;-62
2022/01/05 22:39:05;;;;;;;6.10;1.70;;;;;;;3.08;100.00;97417.78;10484309;28;20151;-62
2022/01/05 22:44:09;;;;;;;4.57;1.60;;;;;;;3.06;100.00;97425.91;10517316;28;20050;-61
2022/01/05 22:49:13;;;;;;;7.15;1.80;;;;;;;3.07;100.00;97424.09;10518031;28;20101;-63
2022/01/05 22:54:18;;;;;;;9.20;2.13;;;;;;;3.07;100.00;97414.31;10496237;28;20079;-61
2022/01/05 22:59:22;;;;;;;10.38;1.90;;;;;;;3.10;100.00;97431.81;10493864;28;20126;-61
2022/01/05 23:04:25;;;;;;;6.35;1.70;;;;;;;3.10;100.00;97457.59;10513882;28;20043;-60
2022/01/05 23:09:28;;;;;;;7.63;1.65;;;;;;;3.12;100.00;97464.44;10499255;28;20052;-60
2022/01/05 23:14:33;;;;;;;7.80;1.92;;;;;;;3.13;100.00;97462.59;10514495;28;20127;-61
2022/01/05 23:19:36;;;;;;;9.20;1.98;;;;;;;3.02;100.00;97468.91;10469415;28;20419;-60
2022/01/05 23:24:40;;;;;;;11.20;2.08;;;;;;;2.89;100.00;97469.16;10517042;28;20059;-61
2022/01/05 23:29:45;;;;;;;8.25;2.00;;;;;;;2.86;100.00;97474.75;10482305;28;20447;-62
2022/01/05 23:34:48;;;;;;;12.57;2.20;;;;;;;2.86;100.00;97472.94;10510587;28;20075;-62
2022/01/05 23:39:51;;;;;;;15.30;2.08;;;;;;;2.90;100.00;97478.81;10516161;28;20093;-61
2022/01/05 23:44:56;;;;;;;13.02;2.40;;;;;;;2.91;100.00;97478.69;10510803;28;20145;-62